Garden City, GA (31418)

8:21 PM EST on February 10, 2016 (GMT -0500)
Sangrena-Pooler | | Change Station
CLOSE
Current Station
Personal Weather Station
Location: Pooler, GA
Elevation: 26 ft
Nearby Weather Stations
Active Advisory: Flood Warning

Elev 26 ft 32.13 °N, 81.27 °W | Updated 2 seconds ago

Clear
Clear
35.6 °F
Feels Like 36 °F
N
0.0
Wind Variable Wind from ENE
Gusts 0.0 mph

Today
High -- | Low -- °F
--% Chance of Precip.
Yesterday
High -- | Low -- °F
Precip. -- in
Pressure 30.18 in
Visibility 10.0 miles
Clouds Clear
Windchill 36 °F
Dew Point 14 °F
Humidity 41%
Rainfall 0.00 in
Snow Depth Not available.
7:12 AM 6:06 PM
Waxing Crescent, 8% visible
METAR KSAV 110053Z 24007KT 10SM CLR 03/M10 A3017 RMK AO2 SLP218 T00281100
Pressure 30.18 in
Visibility 10.0 miles
Clouds Clear
Windchill 36 °F
Dew Point 14 °F
Humidity 41%
Rainfall 0.00 in
Snow Depth Not available.
7:12 AM 6:06 PM
Waxing Crescent, 8% visible
METAR KSAV 110053Z 24007KT 10SM CLR 03/M10 A3017 RMK AO2 SLP218 T00281100

10-Day Weather Forecast

Almanac

Astronomy

Feb. 10, 2016 Rise Set
Actual Time
Civil Twilight
Nautical Twilight
Astronomical Twilight
Moon
Length of Visible Light
Length of Day
Tomorrow will be .
, % of the Moon is Illuminated

Today's Extremes

State Highs State Lows

Community

WunderPhotos

Upload Photos

1,891,963 photos uploaded!

WunderBlog® & News

Nearby

Air Quality

  Air Quality AQ Index Pollutant
Not available.

Snow Depth

Station Depth Elevation

Earthquake Activity

City Distance Mag. Time & Date
Minimum magnitude displayed is 2.5.

Coastal Water Temperatures

Place Temperature

Stations

Nearby Weather Stations

Station Location Temp. Windchill Dew Point Humidity Wind Precip. Elev Updated Type
                   

Watches & Warnings

Flood Warning
Issued: 8:18 PM EST Feb. 10, 2016 – National Weather Service

The Flood Warning continues for
the Ogeechee river near Eden.
* At 7 PM Wednesday the stage was 12.9 feet.
* Flood stage is 11.0 feet.
* Minor flooding is occurring.
* Forecast, the river will remain nearly steady or slowly fall.
* At 12.0 feet, water encroaches on some homes along dashers Landing
Road and Yarbrough Landing Road. Davis Landing Road also becomes
impassable.


Lat... Lon 3246 8160 3252 8152 3227 8140 3208 8133
          3206 8143 3223 8150